createdAt,value
2022-10-20T00:00:33.083Z,99.16
2022-10-20T00:03:35.279Z,98.76
2022-10-20T00:06:36.983Z,99.45
2022-10-20T00:09:38.640Z,99.18
2022-10-20T00:12:40.238Z,100.00
2022-10-20T00:15:49.211Z,99.69
2022-10-20T00:18:51.047Z,99.25
2022-10-20T00:21:52.632Z,99.69
2022-10-20T00:24:54.262Z,100.00
2022-10-20T00:27:55.911Z,99.85
2022-10-20T00:30:57.728Z,100.00
2022-10-20T00:33:59.354Z,99.86
2022-10-20T00:37:00.951Z,100.00
2022-10-20T00:40:02.589Z,100.00
2022-10-20T00:43:04.247Z,100.00
2022-10-20T00:46:06.027Z,100.00
2022-10-20T00:49:24.778Z,100.00
2022-10-20T00:52:26.506Z,100.00
2022-10-20T00:55:34.107Z,100.00
2022-10-20T00:58:35.737Z,100.00
2022-10-20T01:01:39.050Z,100.00
2022-10-20T01:04:41.739Z,100.00
2022-10-20T01:07:43.334Z,100.00
2022-10-20T01:11:05.291Z,100.00
2022-10-20T01:14:36.429Z,100.00
2022-10-20T01:18:05.000Z,100.00
2022-10-20T01:21:17.817Z,100.00
2022-10-20T01:24:30.715Z,100.00
2022-10-20T01:27:42.096Z,100.00
2022-10-20T01:30:54.413Z,100.00
2022-10-20T01:34:19.080Z,100.00
2022-10-20T01:37:48.342Z,100.00
2022-10-20T01:41:08.558Z,100.00
2022-10-20T01:44:14.542Z,100.00
2022-10-20T01:47:17.228Z,100.00
2022-10-20T01:50:19.858Z,100.00
2022-10-20T01:53:21.530Z,100.00
2022-10-20T01:56:42.183Z,100.00
2022-10-20T02:00:02.588Z,100.00
2022-10-20T02:03:13.373Z,100.00
2022-10-20T02:06:42.354Z,100.00
2022-10-20T02:09:57.063Z,100.00
2022-10-20T02:13:04.111Z,100.00
2022-10-20T02:16:13.471Z,100.00
2022-10-20T02:19:19.378Z,100.00
2022-10-20T02:22:22.586Z,100.00
2022-10-20T02:25:27.183Z,100.00
2022-10-20T02:28:29.125Z,100.00
2022-10-20T02:31:31.493Z,100.00
2022-10-20T02:34:33.154Z,100.00
2022-10-20T02:37:35.063Z,100.00
2022-10-20T02:40:36.994Z,100.00
2022-10-20T02:43:39.110Z,100.00
2022-10-20T02:46:40.772Z,100.00
2022-10-20T02:49:42.503Z,100.00
2022-10-20T02:52:44.202Z,100.00
2022-10-20T02:55:45.785Z,100.00
2022-10-20T02:58:47.446Z,100.00
2022-10-20T03:01:49.078Z,100.00
2022-10-20T03:04:50.744Z,100.00
2022-10-20T03:07:53.041Z,100.00
2022-10-20T03:10:54.568Z,100.00
2022-10-20T03:13:56.120Z,100.00
2022-10-20T03:16:57.762Z,100.00
2022-10-20T03:19:59.415Z,100.00
2022-10-20T03:23:01.093Z,100.00
2022-10-20T03:26:08.182Z,100.00
2022-10-20T03:29:09.920Z,100.00
2022-10-20T03:32:11.605Z,100.00
2022-10-20T03:35:13.534Z,100.00
2022-10-20T03:38:15.162Z,100.00
2022-10-20T03:41:16.955Z,100.00
2022-10-20T03:44:18.609Z,100.00
2022-10-20T03:47:20.201Z,100.00
2022-10-20T03:50:24.122Z,100.00
2022-10-20T03:53:25.863Z,100.00
2022-10-20T03:56:27.480Z,100.00
2022-10-20T03:59:30.475Z,100.00
2022-10-20T04:02:39.035Z,100.00
2022-10-20T04:05:41.086Z,100.00
2022-10-20T04:08:42.812Z,100.00
2022-10-20T04:11:44.708Z,100.00
2022-10-20T04:14:47.963Z,100.00
2022-10-20T04:17:52.732Z,100.00
2022-10-20T04:20:55.575Z,100.00
2022-10-20T04:23:57.143Z,100.00
2022-10-20T04:26:59.658Z,100.00
2022-10-20T04:30:01.540Z,100.00
2022-10-20T04:33:03.224Z,100.00
2022-10-20T04:36:07.669Z,100.00
2022-10-20T04:39:09.576Z,100.00
2022-10-20T04:42:13.600Z,100.00
2022-10-20T04:45:17.574Z,100.00
2022-10-20T04:48:19.948Z,100.00
2022-10-20T04:51:23.114Z,100.00
2022-10-20T04:54:24.767Z,100.00
2022-10-20T04:57:28.347Z,100.00
2022-10-20T05:00:30.143Z,100.00
2022-10-20T05:03:31.790Z,100.00
2022-10-20T05:06:46.484Z,100.00
2022-10-20T05:09:48.417Z,100.00
2022-10-20T05:12:50.146Z,100.00
2022-10-20T05:15:53.019Z,100.00
2022-10-20T05:18:56.036Z,100.00
2022-10-20T05:21:58.317Z,100.00
2022-10-20T05:25:12.723Z,100.00
2022-10-20T05:28:21.784Z,100.00
2022-10-20T05:31:23.943Z,100.00
2022-10-20T05:34:25.670Z,100.00
2022-10-20T05:37:27.400Z,100.00
2022-10-20T05:40:29.099Z,100.00
2022-10-20T05:43:30.652Z,100.00
2022-10-20T05:46:34.935Z,100.00
2022-10-20T05:49:36.543Z,100.00
2022-10-20T05:52:38.467Z,100.00
2022-10-20T05:55:40.224Z,100.00
2022-10-20T05:58:43.571Z,100.00
2022-10-20T06:01:48.336Z,100.00
2022-10-20T06:04:50.558Z,100.00
2022-10-20T06:07:54.210Z,100.00
2022-10-20T06:10:55.951Z,100.00
2022-10-20T06:13:57.744Z,100.00
2022-10-20T06:16:59.354Z,100.00
2022-10-20T06:20:00.940Z,100.00
2022-10-20T06:23:02.501Z,100.00
2022-10-20T06:26:09.998Z,100.00
2022-10-20T06:29:14.230Z,100.00
2022-10-20T06:32:18.278Z,100.00
2022-10-20T06:35:19.978Z,100.00
2022-10-20T06:38:21.480Z,100.00
2022-10-20T06:41:24.052Z,100.00
2022-10-20T06:44:25.704Z,100.00
2022-10-20T06:47:30.310Z,100.00
2022-10-20T06:50:34.141Z,100.00
2022-10-20T06:53:36.309Z,100.00
2022-10-20T06:56:39.205Z,100.00
2022-10-20T06:59:40.760Z,100.00
2022-10-20T07:02:42.273Z,100.00
2022-10-20T07:05:43.780Z,100.00
2022-10-20T07:08:45.852Z,100.00
2022-10-20T07:11:51.894Z,100.00
2022-10-20T07:14:53.466Z,100.00
2022-10-20T07:17:54.957Z,100.00
2022-10-20T07:21:01.809Z,100.00
2022-10-20T07:24:05.618Z,100.00
2022-10-20T07:27:07.421Z,100.00
2022-10-20T07:30:09.214Z,100.00
2022-10-20T07:33:10.864Z,100.00
2022-10-20T07:36:24.634Z,100.00
2022-10-20T07:39:26.974Z,100.00
2022-10-20T07:42:29.315Z,100.00
2022-10-20T07:45:31.108Z,100.00
2022-10-20T07:48:33.642Z,100.00
2022-10-20T07:51:35.297Z,100.00
2022-10-20T07:54:37.163Z,100.00
2022-10-20T07:57:38.708Z,100.00
2022-10-20T08:03:46.947Z,100.00
2022-10-20T08:06:48.733Z,100.00
2022-10-20T08:09:50.399Z,100.00
2022-10-20T08:12:51.954Z,100.00
2022-10-20T08:15:54.037Z,100.00
2022-10-20T08:19:01.185Z,100.00
2022-10-20T08:22:02.949Z,100.00
2022-10-20T08:25:05.009Z,100.00
2022-10-20T08:28:07.023Z,100.00
2022-10-20T08:31:08.812Z,100.00
2022-10-20T08:34:10.443Z,100.00
2022-10-20T08:37:12.112Z,100.00
2022-10-20T08:40:28.159Z,100.00
2022-10-20T08:43:31.671Z,100.00
2022-10-20T08:46:37.133Z,100.00
2022-10-20T08:49:38.802Z,100.00
2022-10-20T08:52:42.221Z,100.00
2022-10-20T08:55:44.864Z,100.00
2022-10-20T08:58:46.602Z,100.00
2022-10-20T09:01:48.257Z,100.00
2022-10-20T09:04:55.362Z,100.00
2022-10-20T09:07:57.328Z,100.00
2022-10-20T09:10:59.693Z,100.00
2022-10-20T09:14:01.241Z,100.00
2022-10-20T09:17:06.028Z,100.00
2022-10-20T09:20:21.714Z,100.00
2022-10-20T09:23:44.431Z,100.00
2022-10-20T09:27:04.992Z,100.00
2022-10-20T09:30:23.111Z,100.00
2022-10-20T09:33:33.770Z,100.00
2022-10-20T09:36:35.847Z,100.00
2022-10-20T09:39:47.674Z,100.00
2022-10-20T09:43:15.267Z,100.00
2022-10-20T09:46:21.590Z,100.00
2022-10-20T09:49:36.562Z,100.00
2022-10-20T09:52:47.697Z,100.00
2022-10-20T09:55:51.534Z,100.00
2022-10-20T09:58:54.420Z,100.00
2022-10-20T10:02:23.352Z,100.00
2022-10-20T10:05:33.125Z,100.00
2022-10-20T10:08:47.470Z,100.00
2022-10-20T10:11:58.055Z,100.00
2022-10-20T10:15:05.650Z,100.00
2022-10-20T10:18:22.889Z,100.00
2022-10-20T10:21:24.473Z,100.00
2022-10-20T10:24:48.641Z,100.00
2022-10-20T10:28:21.090Z,100.00
2022-10-20T10:31:24.614Z,100.00
2022-10-20T10:34:38.623Z,100.00
2022-10-20T10:37:42.678Z,100.00
2022-10-20T10:41:06.474Z,99.11
2022-10-20T10:44:39.039Z,98.67
2022-10-20T10:47:52.717Z,99.48
2022-10-20T10:50:58.811Z,99.35
2022-10-20T10:54:14.641Z,99.58
2022-10-20T10:57:29.870Z,98.62
2022-10-20T11:01:03.809Z,98.00
2022-10-20T11:04:46.948Z,97.44
2022-10-20T11:08:18.899Z,97.57
2022-10-20T11:12:04.992Z,96.79
2022-10-20T11:15:24.371Z,97.26
2022-10-20T11:18:52.321Z,96.97
2022-10-20T11:22:20.418Z,96.33
2022-10-20T11:25:33.187Z,95.48
2022-10-20T11:28:44.324Z,95.25
2022-10-20T11:32:03.578Z,94.51
2022-10-20T11:35:21.703Z,94.67
2022-10-20T11:38:48.083Z,93.95
2022-10-20T11:41:58.029Z,94.21
2022-10-20T11:45:01.714Z,94.18
2022-10-20T11:48:18.749Z,93.94
2022-10-20T11:51:32.177Z,93.71
2022-10-20T11:54:53.955Z,93.57
2022-10-20T11:58:29.231Z,92.76
2022-10-20T12:01:44.721Z,93.13
2022-10-20T12:05:04.895Z,92.54
2022-10-20T12:08:29.829Z,91.71
2022-10-20T12:11:51.556Z,92.24
2022-10-20T12:14:59.687Z,91.90
2022-10-20T12:18:05.698Z,90.91
2022-10-20T12:21:10.449Z,91.00
2022-10-20T12:24:30.074Z,91.26
2022-10-20T12:27:32.844Z,91.67
2022-10-20T12:30:43.158Z,90.54
2022-10-20T12:33:50.767Z,89.63
2022-10-20T12:37:16.797Z,89.79
2022-10-20T12:40:26.032Z,90.01
2022-10-20T12:43:48.785Z,89.57
2022-10-20T12:47:23.658Z,90.41
2022-10-20T12:50:42.758Z,90.06
2022-10-20T12:53:54.990Z,90.56
2022-10-20T12:57:00.773Z,90.55
2022-10-20T13:00:03.720Z,89.73
2022-10-20T13:03:37.210Z,89.76
2022-10-20T13:06:40.319Z,89.23
2022-10-20T13:09:56.381Z,89.39
2022-10-20T13:13:03.440Z,89.37
2022-10-20T13:16:15.365Z,89.47
2022-10-20T13:19:22.752Z,90.09
2022-10-20T13:22:38.971Z,89.44
2022-10-20T13:25:45.634Z,89.27
2022-10-20T13:28:49.680Z,88.78
2022-10-20T13:35:29.776Z,88.35
2022-10-20T13:38:38.347Z,89.13
2022-10-20T13:41:49.256Z,89.28
2022-10-20T13:45:07.725Z,89.46
2022-10-20T13:48:29.293Z,89.02
2022-10-20T13:51:35.184Z,88.95
2022-10-20T13:54:40.330Z,88.63
2022-10-20T13:57:54.949Z,88.88
2022-10-20T14:01:27.606Z,89.78
2022-10-20T14:04:31.165Z,89.34
2022-10-20T14:07:40.700Z,88.97
2022-10-20T14:10:48.518Z,89.13
2022-10-20T14:13:50.820Z,89.05
2022-10-20T14:16:57.360Z,89.06
2022-10-20T14:20:17.541Z,88.74
2022-10-20T14:23:19.431Z,88.99
2022-10-20T14:26:22.638Z,89.67
2022-10-20T14:29:28.028Z,89.26
2022-10-20T14:32:31.587Z,88.85
2022-10-20T14:35:41.179Z,88.71
2022-10-20T14:38:47.865Z,88.61
2022-10-20T14:41:49.450Z,89.11
2022-10-20T14:44:52.868Z,89.18
2022-10-20T14:47:57.489Z,89.32
2022-10-20T14:50:59.068Z,89.37
2022-10-20T14:54:19.358Z,89.61
2022-10-20T14:57:20.837Z,89.56
2022-10-20T15:00:33.434Z,90.09
2022-10-20T15:03:36.424Z,89.98
2022-10-20T15:06:38.005Z,90.27
2022-10-20T15:09:47.037Z,90.30
2022-10-20T15:12:52.087Z,90.79
2022-10-20T15:15:54.314Z,91.66
2022-10-20T15:19:34.175Z,92.10
2022-10-20T15:22:35.978Z,91.74
2022-10-20T15:25:42.302Z,91.87
2022-10-20T15:28:46.542Z,92.18
2022-10-20T15:31:48.039Z,92.04
2022-10-20T15:34:49.569Z,91.78
2022-10-20T15:37:54.642Z,91.98
2022-10-20T15:40:56.214Z,92.76
2022-10-20T15:44:07.477Z,93.34
2022-10-20T15:47:09.021Z,93.65
2022-10-20T15:50:10.659Z,94.19
2022-10-20T15:53:12.452Z,94.03
2022-10-20T15:56:14.045Z,94.25
2022-10-20T15:59:15.555Z,94.26
2022-10-20T16:02:17.126Z,94.85
2022-10-20T16:05:21.361Z,94.81
2022-10-20T16:08:22.875Z,94.77
2022-10-20T16:11:24.444Z,94.96
2022-10-20T16:14:25.999Z,95.22
2022-10-20T16:17:27.908Z,95.59
2022-10-20T16:20:29.622Z,95.51
2022-10-20T16:23:31.708Z,95.75
2022-10-20T16:26:33.254Z,95.30
2022-10-20T16:29:34.819Z,96.09
2022-10-20T16:32:37.029Z,96.24
2022-10-20T16:35:44.877Z,96.46
2022-10-20T16:38:46.425Z,96.55
2022-10-20T16:41:48.018Z,96.39
2022-10-20T16:44:49.551Z,96.66
2022-10-20T16:47:51.289Z,97.16
2022-10-20T16:50:52.866Z,97.21
2022-10-20T16:53:57.283Z,97.12
2022-10-20T16:57:01.205Z,97.36
2022-10-20T17:00:03.248Z,97.35
2022-10-20T17:03:04.853Z,97.66
2022-10-20T17:06:07.603Z,97.84
2022-10-20T17:09:09.540Z,97.97
2022-10-20T17:12:11.285Z,98.37
2022-10-20T17:15:12.990Z,98.14
2022-10-20T17:18:14.650Z,98.21
2022-10-20T17:21:16.526Z,98.39
2022-10-20T17:24:18.074Z,98.33
2022-10-20T17:27:19.653Z,98.29
2022-10-20T17:30:21.180Z,98.68
2022-10-20T17:33:32.024Z,98.63
2022-10-20T17:36:33.611Z,98.76
2022-10-20T17:39:35.158Z,98.92
2022-10-20T17:42:37.302Z,99.21
2022-10-20T17:45:39.111Z,98.46
2022-10-20T17:48:40.878Z,99.04
2022-10-20T17:51:44.186Z,98.91
2022-10-20T17:54:45.754Z,98.76
2022-10-20T17:57:47.349Z,98.94
2022-10-20T18:00:56.679Z,98.91
2022-10-20T18:04:07.466Z,98.87
2022-10-20T18:07:09.325Z,99.12
2022-10-20T18:10:11.876Z,99.11
2022-10-20T18:13:13.522Z,99.35
2022-10-20T18:16:17.849Z,98.93
2022-10-20T18:19:19.647Z,99.00
2022-10-20T18:22:21.288Z,98.89
2022-10-20T18:25:22.823Z,99.21
2022-10-20T18:28:25.141Z,99.33
2022-10-20T18:31:30.522Z,99.54
2022-10-20T18:34:32.351Z,99.66
2022-10-20T18:37:33.898Z,99.51
2022-10-20T18:40:35.523Z,99.70
2022-10-20T18:43:37.405Z,99.57
2022-10-20T18:46:39.990Z,99.89
2022-10-20T18:49:41.498Z,99.69
2022-10-20T18:52:43.008Z,99.90
2022-10-20T18:55:44.521Z,99.84
2022-10-20T18:58:57.938Z,99.91
2022-10-20T19:01:59.461Z,99.87
2022-10-20T19:05:02.855Z,100.00
2022-10-20T19:08:04.809Z,100.00
2022-10-20T19:11:09.254Z,100.00
2022-10-20T19:14:11.944Z,100.00
2022-10-20T19:17:13.573Z,100.00
2022-10-20T19:20:15.077Z,100.00
2022-10-20T19:23:16.662Z,100.00
2022-10-20T19:26:22.409Z,100.00
2022-10-20T19:29:24.411Z,100.00
2022-10-20T19:32:25.925Z,100.00
2022-10-20T19:35:27.625Z,100.00
2022-10-20T19:38:29.192Z,100.00
2022-10-20T19:41:30.786Z,100.00
2022-10-20T19:44:32.649Z,100.00
2022-10-20T19:47:36.771Z,100.00
2022-10-20T19:50:38.300Z,100.00
2022-10-20T19:53:40.385Z,100.00
2022-10-20T19:56:42.679Z,100.00
2022-10-20T19:59:44.216Z,100.00
2022-10-20T20:02:45.778Z,100.00
2022-10-20T20:05:48.429Z,100.00
2022-10-20T20:08:54.704Z,100.00
2022-10-20T20:11:56.535Z,100.00
2022-10-20T20:14:58.115Z,100.00
2022-10-20T20:17:59.653Z,100.00
2022-10-20T20:21:03.682Z,100.00
2022-10-20T20:24:05.539Z,100.00
2022-10-20T20:27:07.086Z,100.00
2022-10-20T20:30:08.884Z,100.00
2022-10-20T20:33:11.228Z,100.00
2022-10-20T20:36:12.993Z,100.00
2022-10-20T20:39:14.558Z,100.00
2022-10-20T20:42:16.400Z,100.00
2022-10-20T20:45:17.897Z,100.00
2022-10-20T20:48:19.446Z,100.00
2022-10-20T20:51:21.105Z,100.00
2022-10-20T20:54:22.980Z,100.00
2022-10-20T20:57:24.926Z,100.00
2022-10-20T21:00:26.788Z,100.00
2022-10-20T21:03:29.227Z,100.00
2022-10-20T21:06:49.368Z,100.00
2022-10-20T21:09:53.781Z,100.00
2022-10-20T21:12:55.303Z,100.00
2022-10-20T21:16:10.310Z,100.00
2022-10-20T21:19:11.969Z,100.00
2022-10-20T21:22:13.517Z,100.00
2022-10-20T21:25:15.043Z,100.00
2022-10-20T21:28:16.600Z,100.00
2022-10-20T21:31:20.441Z,100.00
2022-10-20T21:34:22.028Z,100.00
2022-10-20T21:37:23.645Z,100.00
2022-10-20T21:40:25.191Z,100.00
2022-10-20T21:43:26.719Z,100.00
2022-10-20T21:46:33.851Z,100.00
2022-10-20T21:49:35.631Z,100.00
2022-10-20T21:52:39.116Z,100.00
2022-10-20T21:55:40.803Z,100.00
2022-10-20T21:58:43.553Z,100.00
2022-10-20T22:01:46.212Z,100.00
2022-10-20T22:04:47.740Z,100.00
2022-10-20T22:07:49.251Z,100.00
2022-10-20T22:10:50.801Z,100.00
2022-10-20T22:13:52.433Z,100.00
2022-10-20T22:16:55.594Z,100.00
2022-10-20T22:19:57.179Z,100.00
2022-10-20T22:22:58.762Z,100.00
2022-10-20T22:26:00.390Z,100.00
2022-10-20T22:29:03.863Z,100.00
2022-10-20T22:32:05.531Z,100.00
2022-10-20T22:35:07.747Z,100.00
2022-10-20T22:38:09.310Z,100.00
2022-10-20T22:41:11.529Z,100.00
2022-10-20T22:44:13.241Z,100.00
2022-10-20T22:47:14.816Z,100.00
2022-10-20T22:50:16.622Z,100.00
2022-10-20T22:53:18.213Z,100.00
2022-10-20T22:56:22.865Z,100.00
2022-10-20T22:59:24.596Z,100.00
2022-10-20T23:02:29.146Z,100.00
2022-10-20T23:05:30.942Z,100.00
2022-10-20T23:08:32.815Z,100.00
2022-10-20T23:11:34.508Z,100.00
2022-10-20T23:14:36.007Z,100.00
2022-10-20T23:17:37.913Z,100.00
2022-10-20T23:20:40.115Z,100.00
2022-10-20T23:23:41.825Z,100.00
2022-10-20T23:26:43.643Z,100.00
2022-10-20T23:29:45.134Z,100.00
2022-10-20T23:32:46.629Z,100.00
2022-10-20T23:35:48.178Z,100.00
2022-10-20T23:38:49.872Z,100.00
2022-10-20T23:41:51.366Z,100.00
2022-10-20T23:44:52.834Z,100.00
2022-10-20T23:47:54.355Z,100.00
2022-10-20T23:50:56.137Z,100.00
2022-10-20T23:53:57.846Z,100.00
2022-10-20T23:56:59.415Z,100.00
